ICAO code: LHPR | IATA code: QGY | AFTN: LHPRZPZX | magyar | deutsch
Weather : 2018-04-20 06:50 (UTC) | Temperature: 17.9 °C | QNH: 1026.7 hPa | Wind: 2.7 m/s | More
Live ATC LHPR
Live webcam

Győr-Pér Airport Meteor data

Metar:
METAR LHPR 192145Z AUTO 35014KT 320V020 CAVOK 18/09 Q1025 RMK BL


Taf:
TAF LHPR 192000Z NIL


Present weather:
Cloud development not observed or observable
Date stamp: 2018-04-20 06:50:00 UTC
Air Temp:
17.9 °C
 
Dewpoint:
10.5 °C
 
Rel. Humidity:
62%
 
QNH:
1026.7 hPa
 
Wind speed:
2.7 m/s
Max:
4.1 m/s
Wind direction:
350°
 
Precipitation (1 hour):
0.0 mm
 
Visibility:
20000 m
 
RVR:
>1500 m RWY30
 
1st cloud layer quantity:
0 octa
 
1st cloud layer base:
m


Az adatokat szolgáltatja
az Országos Meteorológiai Szolgálat
Győr-Pér Airport | H 9099 Pér, Repülőtér | Tel: +36/96/559-200 | Fax: +36/96/559-202

ICAO code: LHPR | IATA code: QGY | AFTN: LHPRZPZX


weboldal tervezés: IRQ